Time;durP1;ratioP1;P1;durP2;ratioP2;P2;SDS_P1;SDS_P2;PMS_P1;PMS_P2;Temp;Humidity;BMP_temperature;BMP_pressure;BME280_temperature;BME280_humidity;BME280_pressure;Samples;Min_cycle;Max_cycle;Signal;HPM_P1;HPM_P2
2022/12/05 00:01:55;;;;;;;7.90;3.93;;;;;;;;;;5083732;27;86904;-54
2022/12/05 00:04:23;;;;;;;6.57;4.10;;;;;;;;;;5083244;27;88908;-54
2022/12/05 00:06:51;;;;;;;6.03;4.43;;;;;;;;;;5083615;27;87049;-54
2022/12/05 00:09:20;;;;;;;6.03;4.07;;;;;;;;;;5083454;27;87161;-54
2022/12/05 00:11:48;;;;;;;7.90;3.93;;;;;;;;;;5083592;27;87312;-54
2022/12/05 00:14:17;;;;;;;4.70;3.33;;;;;;;;;;5083290;27;89174;-54
2022/12/05 00:16:45;;;;;;;5.70;3.53;;;;;;;;;;5083174;27;88650;-53
2022/12/05 00:19:15;;;;;;;5.73;3.70;;;;;;;;;;5083324;27;87257;-54
2022/12/05 00:21:43;;;;;;;8.67;3.80;;;;;;;;;;5082953;27;87053;-54
2022/12/05 00:24:13;;;;;;;7.40;4.40;;;;;;;;;;5082739;27;90107;-54
2022/12/05 00:26:41;;;;;;;4.00;3.03;;;;;;;;;;5083171;27;88815;-54
2022/12/05 00:29:09;;;;;;;5.57;3.50;;;;;;;;;;5083776;27;86906;-54
2022/12/05 00:31:38;;;;;;;5.97;3.63;;;;;;;;;;5083405;27;86917;-54
2022/12/05 00:34:06;;;;;;;6.80;3.70;;;;;;;;;;5082923;27;88478;-54
2022/12/05 00:36:36;;;;;;;6.40;3.17;;;;;;;;;;5083079;27;88902;-54
2022/12/05 00:39:05;;;;;;;4.63;3.30;;;;;;;;;;5082556;27;87014;-54
2022/12/05 00:41:34;;;;;;;4.77;3.17;;;;;;;;;;5083886;27;86132;-54
2022/12/05 00:44:02;;;;;;;4.77;3.83;;;;;;;;;;5082894;27;89231;-54
2022/12/05 00:46:31;;;;;;;4.57;3.23;;;;;;;;;;5082730;27;88921;-54
2022/12/05 00:49:00;;;;;;;7.70;3.07;;;;;;;;;;5082731;27;87933;-54
2022/12/05 00:51:28;;;;;;;6.80;3.10;;;;;;;;;;5082828;27;86839;-54
2022/12/05 00:53:59;;;;;;;6.10;3.27;;;;;;;;;;5082212;27;88101;-54
2022/12/05 00:56:28;;;;;;;3.47;2.80;;;;;;;;;;5082624;27;88815;-54
2022/12/05 00:58:56;;;;;;;7.50;3.23;;;;;;;;;;5083243;27;87031;-54
2022/12/05 01:01:25;;;;;;;4.90;3.27;;;;;;;;;;5082890;27;86899;-54
2022/12/05 01:03:54;;;;;;;3.23;2.73;;;;;;;;;;5082625;27;92134;-54
2022/12/05 01:06:23;;;;;;;4.77;3.40;;;;;;;;;;5082801;27;87731;-54
2022/12/05 01:08:51;;;;;;;4.73;3.00;;;;;;;;;;5082662;27;87138;-54
2022/12/05 01:11:22;;;;;;;6.20;2.90;;;;;;;;;;5083136;27;86908;-54
2022/12/05 01:13:50;;;;;;;5.70;2.90;;;;;;;;;;5082014;27;90031;-54
2022/12/05 01:16:19;;;;;;;7.47;3.50;;;;;;;;;;5081991;27;88644;-54
2022/12/05 01:18:47;;;;;;;7.53;3.33;;;;;;;;;;5082796;27;86976;-54
2022/12/05 01:21:15;;;;;;;6.30;3.37;;;;;;;;;;5082592;27;86950;-54
2022/12/05 01:23:43;;;;;;;6.17;3.90;;;;;;;;;;5082561;27;89020;-54
2022/12/05 01:26:13;;;;;;;4.07;3.20;;;;;;;;;;5082578;27;88773;-54
2022/12/05 01:28:42;;;;;;;7.30;2.90;;;;;;;;;;5082625;27;86756;-53
2022/12/05 01:31:13;;;;;;;5.53;3.83;;;;;;;;;;5083106;27;86246;-54
2022/12/05 01:33:41;;;;;;;5.20;3.80;;;;;;;;;;5082607;27;87830;-54
2022/12/05 01:36:10;;;;;;;3.30;2.67;;;;;;;;;;5082269;27;87837;-54
2022/12/05 01:38:39;;;;;;;7.07;4.37;;;;;;;;;;5081575;27;88026;-54
2022/12/05 01:41:08;;;;;;;5.33;3.30;;;;;;;;;;5063918;27;86892;-54
2022/12/05 01:43:51;;;;;;;5.80;3.30;;;;;;;;;;5061737;27;87442;-53
2022/12/05 01:46:21;;;;;;;4.63;3.27;;;;;;;;;;5061906;27;87990;-54
2022/12/05 01:48:50;;;;;;;4.97;3.60;;;;;;;;;;5062247;27;87067;-54
2022/12/05 01:51:18;;;;;;;5.53;3.10;;;;;;;;;;5061076;27;86938;-54
2022/12/05 01:53:46;;;;;;;5.73;3.53;;;;;;;;;;5061760;27;89304;-54
2022/12/05 01:56:15;;;;;;;4.23;3.07;;;;;;;;;;5062113;27;88853;-54
2022/12/05 01:58:43;;;;;;;7.13;3.00;;;;;;;;;;5061961;27;86848;-54
2022/12/05 02:01:12;;;;;;;6.73;3.70;;;;;;;;;;5061954;27;87168;-54
2022/12/05 02:03:42;;;;;;;4.63;2.50;;;;;;;;;;5061001;27;90020;-55
2022/12/05 02:06:10;;;;;;;2.97;2.47;;;;;;;;;;5064100;27;89678;-54
2022/12/05 02:08:38;;;;;;;4.27;3.03;;;;;;;;;;5065039;27;86993;-54
2022/12/05 02:11:07;;;;;;;5.17;3.07;;;;;;;;;;5064886;27;87099;-54
2022/12/05 02:13:38;;;;;;;5.87;3.50;;;;;;;;;;5064693;27;89130;-54
2022/12/05 02:16:08;;;;;;;3.93;2.87;;;;;;;;;;5064970;27;87672;-54
2022/12/05 02:18:42;;;;;;;4.83;3.77;;;;;;;;;;5065121;27;86946;-54
2022/12/05 02:21:17;;;;;;;3.00;2.73;;;;;;;;;;5065231;27;86319;-54
2022/12/05 02:24:03;;;;;;;5.97;3.10;;;;;;;;;;5064910;27;89183;-53
2022/12/05 02:26:48;;;;;;;8.43;3.57;;;;;;;;;;5064847;27;87282;-54
2022/12/05 02:29:25;;;;;;;6.33;3.77;;;;;;;;;;5064543;27;87835;-53
2022/12/05 02:31:56;;;;;;;4.20;3.20;;;;;;;;;;5064446;27;86950;-54
2022/12/05 02:34:25;;;;;;;7.33;2.90;;;;;;;;;;5064418;27;89065;-53
2022/12/05 02:36:55;;;;;;;3.20;2.63;;;;;;;;;;5065158;27;89106;-54
2022/12/05 02:39:25;;;;;;;9.13;3.27;;;;;;;;;;5064919;27;86851;-54
2022/12/05 02:41:53;;;;;;;5.00;2.83;;;;;;;;;;5064943;27;87017;-53
2022/12/05 02:44:22;;;;;;;3.77;2.93;;;;;;;;;;5064603;27;89285;-54
2022/12/05 02:46:51;;;;;;;4.80;3.43;;;;;;;;;;5064583;27;88941;-54
2022/12/05 02:49:22;;;;;;;6.30;3.37;;;;;;;;;;5064936;27;86764;-54
2022/12/05 02:51:51;;;;;;;5.47;2.50;;;;;;;;;;5064544;27;86894;-54
2022/12/05 02:54:20;;;;;;;3.27;2.07;;;;;;;;;;5063741;27;90041;-54
2022/12/05 02:56:48;;;;;;;4.73;2.90;;;;;;;;;;5064319;27;88693;-54
2022/12/05 02:59:16;;;;;;;4.70;3.33;;;;;;;;;;5064350;27;86987;-54
2022/12/05 03:01:50;;;;;;;3.27;2.77;;;;;;;;;;5064739;27;87044;-54
2022/12/05 03:04:20;;;;;;;3.57;3.23;;;;;;;;;;5064367;27;88884;-54
2022/12/05 03:06:49;;;;;;;4.13;2.17;;;;;;;;;;5063859;27;88550;-54
2022/12/05 03:09:19;;;;;;;4.77;2.97;;;;;;;;;;5064396;27;86818;-54
2022/12/05 03:11:48;;;;;;;2.70;2.30;;;;;;;;;;5064362;27;86206;-54
2022/12/05 03:14:20;;;;;;;5.90;2.07;;;;;;;;;;5064252;27;88910;-54
2022/12/05 03:16:49;;;;;;;4.87;3.00;;;;;;;;;;5063512;27;88879;-54
2022/12/05 03:19:18;;;;;;;3.10;2.27;;;;;;;;;;5063880;27;87812;-54
2022/12/05 03:21:49;;;;;;;3.47;2.23;;;;;;;;;;5064076;27;87049;-54
2022/12/05 03:24:18;;;;;;;3.63;2.13;;;;;;;;;;5064081;27;88841;-54
2022/12/05 03:26:47;;;;;;;5.80;3.27;;;;;;;;;;5064068;27;88925;-54
2022/12/05 03:29:20;;;;;;;4.70;2.37;;;;;;;;;;5064242;27;86852;-54
2022/12/05 03:31:51;;;;;;;4.53;2.60;;;;;;;;;;5063534;27;87125;-54
2022/12/05 03:34:20;;;;;;;6.30;3.63;;;;;;;;;;5063631;27;89019;-54
2022/12/05 03:36:50;;;;;;;4.50;2.87;;;;;;;;;;5063846;27;88899;-54
2022/12/05 03:39:19;;;;;;;4.20;3.10;;;;;;;;;;5063292;27;87179;-54
2022/12/05 03:41:49;;;;;;;4.53;2.80;;;;;;;;;;5063352;27;86922;-54
2022/12/05 03:44:18;;;;;;;3.10;2.13;;;;;;;;;;5063309;27;89116;-54
2022/12/05 03:46:47;;;;;;;5.73;2.83;;;;;;;;;;5063760;27;88675;-54
2022/12/05 03:49:17;;;;;;;3.00;1.67;;;;;;;;;;5063783;27;86908;-54
2022/12/05 03:51:46;;;;;;;8.00;3.47;;;;;;;;;;5062815;27;87066;-54
2022/12/05 03:54:17;;;;;;;4.10;2.70;;;;;;;;;;5063467;27;89067;-54
2022/12/05 03:56:46;;;;;;;4.47;2.43;;;;;;;;;;5063033;27;87734;-54
2022/12/05 03:59:15;;;;;;;2.23;2.00;;;;;;;;;;5063822;27;86996;-54
2022/12/05 04:01:43;;;;;;;5.33;2.67;;;;;;;;;;5063854;27;86289;-54
2022/12/05 04:04:13;;;;;;;4.00;2.67;;;;;;;;;;5063787;27;89442;-54
2022/12/05 04:06:41;;;;;;;2.60;2.00;;;;;;;;;;5063770;27;87028;-54
2022/12/05 04:09:10;;;;;;;3.37;2.13;;;;;;;;;;5063405;27;87681;-54
2022/12/05 04:11:46;;;;;;;3.00;1.70;;;;;;;;;;5063430;27;87118;-54
2022/12/05 04:14:15;;;;;;;5.03;2.80;;;;;;;;;;5063120;27;88744;-53
2022/12/05 04:21:36;;;;;;;3.83;2.10;;;;;;;;;;5063280;27;87095;-54
2022/12/05 04:22:18;;;;;;;3.20;1.97;;;;;;;;;;5062676;27;86949;-54
2022/12/05 04:27:34;;;;;;;3.70;2.47;;;;;;;;;;5062173;27;88773;-54
2022/12/05 04:30:04;;;;;;;3.00;2.70;;;;;;;;;;5062999;27;87023;-55
2022/12/05 04:32:34;;;;;;;3.17;2.33;;;;;;;;;;5062839;27;86994;-54
2022/12/05 04:35:04;;;;;;;3.03;2.20;;;;;;;;;;5062228;27;90171;-54
2022/12/05 04:37:32;;;;;;;4.00;2.80;;;;;;;;;;5062535;27;89796;-54
2022/12/05 04:40:02;;;;;;;3.20;2.20;;;;;;;;;;5061982;27;88487;-54
2022/12/05 04:42:30;;;;;;;3.80;2.70;;;;;;;;;;5062530;27;87112;-54
2022/12/05 04:45:03;;;;;;;2.70;2.00;;;;;;;;;;5062700;27;87046;-54
2022/12/05 04:47:32;;;;;;;3.50;2.67;;;;;;;;;;5062745;27;87415;-54
2022/12/05 04:50:00;;;;;;;5.10;2.97;;;;;;;;;;5062433;27;87009;-54
2022/12/05 04:52:28;;;;;;;4.03;2.50;;;;;;;;;;5062942;27;86912;-54
2022/12/05 04:54:58;;;;;;;2.80;2.27;;;;;;;;;;5062379;27;89181;-54
2022/12/05 04:57:27;;;;;;;2.83;1.80;;;;;;;;;;5062459;27;88759;-54
2022/12/05 04:59:55;;;;;;;3.03;2.57;;;;;;;;;;5062213;27;87852;-54
2022/12/05 05:02:27;;;;;;;3.90;2.03;;;;;;;;;;5061790;27;87067;-54
2022/12/05 05:04:55;;;;;;;3.97;2.10;;;;;;;;;;5061632;27;89196;-54
2022/12/05 05:07:23;;;;;;;3.57;2.40;;;;;;;;;;5062030;27;87591;-55
2022/12/05 05:09:52;;;;;;;2.23;2.00;;;;;;;;;;5062089;27;86994;-54
2022/12/05 05:12:20;;;;;;;2.77;1.90;;;;;;;;;;5059495;27;87098;-54
2022/12/05 05:14:48;;;;;;;2.40;2.03;;;;;;;;;;5059194;27;88105;-54
2022/12/05 05:17:17;;;;;;;3.33;2.13;;;;;;;;;;5060871;27;86306;-54
2022/12/05 05:19:46;;;;;;;3.33;2.70;;;;;;;;;;5060777;27;87731;-54
2022/12/05 05:22:15;;;;;;;5.43;2.90;;;;;;;;;;5059305;27;86971;-55
2022/12/05 05:24:43;;;;;;;3.57;2.00;;;;;;;;;;5059900;27;89709;-54
2022/12/05 05:27:11;;;;;;;3.83;1.73;;;;;;;;;;5061896;27;89651;-54
2022/12/05 05:29:39;;;;;;;2.67;2.17;;;;;;;;;;5062576;27;87060;-54
2022/12/05 05:32:08;;;;;;;4.17;2.53;;;;;;;;;;5062371;27;86920;-54
2022/12/05 05:34:36;;;;;;;3.27;1.97;;;;;;;;;;5062292;27;89046;-54
2022/12/05 05:37:05;;;;;;;4.30;2.10;;;;;;;;;;5062273;27;88453;-54
2022/12/05 05:39:34;;;;;;;2.00;1.77;;;;;;;;;;5062176;27;87168;-54
2022/12/05 05:42:02;;;;;;;3.77;3.23;;;;;;;;;;5066219;27;87239;-55
2022/12/05 05:44:30;;;;;;;3.30;2.43;;;;;;;;;;5065623;27;88123;-54
2022/12/05 05:46:59;;;;;;;2.73;2.40;;;;;;;;;;5065438;27;87773;-54
2022/12/05 05:49:27;;;;;;;2.43;2.23;;;;;;;;;;5065033;27;88063;-54
2022/12/05 05:51:55;;;;;;;2.10;1.77;;;;;;;;;;5065605;27;87108;-54
2022/12/05 05:54:25;;;;;;;3.43;2.63;;;;;;;;;;5064920;27;88236;-54
2022/12/05 05:56:53;;;;;;;3.87;1.87;;;;;;;;;;5065154;27;88612;-54
2022/12/05 05:59:21;;;;;;;4.03;3.17;;;;;;;;;;5065203;27;87019;-55
2022/12/05 06:01:50;;;;;;;2.80;2.00;;;;;;;;;;5064962;27;86994;-55
2022/12/05 06:04:18;;;;;;;1.90;1.80;;;;;;;;;;5065136;27;89248;-55
2022/12/05 06:06:46;;;;;;;3.17;2.60;;;;;;;;;;5065613;27;87494;-54
2022/12/05 06:09:15;;;;;;;2.13;1.93;;;;;;;;;;5065483;27;86896;-54
2022/12/05 06:11:44;;;;;;;4.17;2.30;;;;;;;;;;5065489;27;86903;-54
2022/12/05 06:14:12;;;;;;;2.03;1.73;;;;;;;;;;5064625;27;89698;-54
2022/12/05 06:16:41;;;;;;;4.50;2.37;;;;;;;;;;5064739;27;89710;-54
2022/12/05 06:19:09;;;;;;;4.77;1.93;;;;;;;;;;5064939;27;86899;-54
2022/12/05 06:21:37;;;;;;;6.87;3.23;;;;;;;;;;5064662;27;86995;-54
2022/12/05 06:24:06;;;;;;;2.37;2.00;;;;;;;;;;5064321;27;87002;-54
2022/12/05 06:26:34;;;;;;;4.47;2.67;;;;;;;;;;5064776;27;87919;-54
2022/12/05 06:29:04;;;;;;;3.17;2.20;;;;;;;;;;5065455;27;86928;-55
2022/12/05 06:31:32;;;;;;;3.23;2.23;;;;;;;;;;5065377;27;86198;-54
2022/12/05 06:34:01;;;;;;;3.00;1.83;;;;;;;;;;5064732;27;89169;-54
2022/12/05 06:36:30;;;;;;;2.33;2.03;;;;;;;;;;5064559;27;88954;-54
2022/12/05 06:38:58;;;;;;;4.80;2.50;;;;;;;;;;5064303;27;88105;-54
2022/12/05 06:41:27;;;;;;;2.13;1.93;;;;;;;;;;5065133;27;86990;-54
2022/12/05 06:43:55;;;;;;;3.43;2.57;;;;;;;;;;5064530;27;89062;-54
2022/12/05 06:46:30;;;;;;;4.03;1.70;;;;;;;;;;5064039;27;88881;-54
2022/12/05 06:48:59;;;;;;;1.83;1.53;;;;;;;;;;5064680;27;87056;-55
2022/12/05 06:51:27;;;;;;;1.90;1.80;;;;;;;;;;5064015;27;87000;-56
2022/12/05 06:53:56;;;;;;;2.07;1.87;;;;;;;;;;5064682;27;88020;-54
2022/12/05 06:56:24;;;;;;;3.77;2.03;;;;;;;;;;5064940;27;88539;-54
2022/12/05 06:58:52;;;;;;;2.40;1.93;;;;;;;;;;5064394;27;87196;-54
2022/12/05 07:01:39;;;;;;;3.23;2.40;;;;;;;;;;5064437;27;86904;-54
2022/12/05 07:04:11;;;;;;;3.03;1.40;;;;;;;;;;5063852;27;89933;-54
2022/12/05 07:06:39;;;;;;;2.87;2.30;;;;;;;;;;5064246;27;88732;-54
2022/12/05 07:09:08;;;;;;;1.87;1.70;;;;;;;;;;5064503;27;86955;-54
2022/12/05 07:11:36;;;;;;;3.40;1.93;;;;;;;;;;5064477;27;86962;-54
2022/12/05 07:14:05;;;;;;;2.63;2.07;;;;;;;;;;5064204;27;89130;-54
2022/12/05 07:16:46;;;;;;;2.53;1.83;;;;;;;;;;5063788;27;88060;-54
2022/12/05 07:19:16;;;;;;;2.50;1.97;;;;;;;;;;5064530;27;86923;-54
2022/12/05 07:21:44;;;;;;;4.03;1.83;;;;;;;;;;5064213;27;86110;-54
2022/12/05 07:24:12;;;;;;;2.27;2.07;;;;;;;;;;5063707;27;88869;-54
2022/12/05 07:26:40;;;;;;;1.87;1.63;;;;;;;;;;5063034;27;88644;-54
2022/12/05 07:29:09;;;;;;;3.40;1.67;;;;;;;;;;5063478;27;88024;-54
2022/12/05 07:31:37;;;;;;;3.33;1.80;;;;;;;;;;5064047;27;86803;-54
2022/12/05 07:34:06;;;;;;;3.20;1.53;;;;;;;;;;5063727;27;89140;-54
2022/12/05 07:36:35;;;;;;;2.13;1.60;;;;;;;;;;5063512;27;88559;-54
2022/12/05 07:39:04;;;;;;;2.27;1.30;;;;;;;;;;5063592;27;86978;-54
2022/12/05 07:41:33;;;;;;;4.83;2.23;;;;;;;;;;5063830;27;86959;-54
2022/12/05 07:44:02;;;;;;;1.93;1.40;;;;;;;;;;5063507;27;88830;-54
2022/12/05 07:46:30;;;;;;;1.90;1.50;;;;;;;;;;5064009;27;88763;-54
2022/12/05 07:48:58;;;;;;;1.87;1.67;;;;;;;;;;5063706;27;87187;-54
2022/12/05 07:51:26;;;;;;;3.30;1.90;;;;;;;;;;5063224;27;87007;-54
2022/12/05 07:53:56;;;;;;;1.90;1.50;;;;;;;;;;5063068;27;90142;-54
2022/12/05 07:56:24;;;;;;;5.37;2.33;;;;;;;;;;5063439;27;89797;-54
2022/12/05 07:58:53;;;;;;;2.97;2.23;;;;;;;;;;5063629;27;86988;-54
2022/12/05 08:01:21;;;;;;;2.67;1.70;;;;;;;;;;5063300;27;86996;-54
2022/12/05 08:03:50;;;;;;;2.33;1.40;;;;;;;;;;5062247;27;88329;-54
2022/12/05 08:06:19;;;;;;;3.80;1.93;;;;;;;;;;5063275;27;87616;-54
2022/12/05 08:08:48;;;;;;;3.33;1.53;;;;;;;;;;5063518;27;87013;-54
2022/12/05 08:11:19;;;;;;;2.50;2.10;;;;;;;;;;5063424;27;86292;-54
2022/12/05 08:13:48;;;;;;;2.37;2.13;;;;;;;;;;5063140;27;89199;-54
2022/12/05 08:16:16;;;;;;;3.90;1.80;;;;;;;;;;5062773;27;87627;-54
2022/12/05 08:18:45;;;;;;;3.07;1.77;;;;;;;;;;5062277;27;87849;-54
2022/12/05 08:21:14;;;;;;;2.20;1.37;;;;;;;;;;5063317;27;86865;-54
2022/12/05 08:23:43;;;;;;;2.63;2.00;;;;;;;;;;5063088;27;88902;-54
2022/12/05 08:26:12;;;;;;;3.00;1.93;;;;;;;;;;5062960;27;88927;-54
2022/12/05 08:28:41;;;;;;;1.80;1.70;;;;;;;;;;5062975;27;87035;-54
2022/12/05 08:31:10;;;;;;;1.70;1.30;;;;;;;;;;5063343;27;86932;-54
2022/12/05 08:33:39;;;;;;;2.70;1.73;;;;;;;;;;5062894;27;89141;-54
2022/12/05 08:36:07;;;;;;;2.80;1.70;;;;;;;;;;5063051;27;88979;-54
2022/12/05 08:38:36;;;;;;;3.77;1.67;;;;;;;;;;5062700;27;86775;-54
2022/12/05 08:41:04;;;;;;;2.60;1.63;;;;;;;;;;5062707;27;87143;-54
2022/12/05 08:43:33;;;;;;;4.17;1.93;;;;;;;;;;5062152;27;89255;-54
2022/12/05 08:46:05;;;;;;;3.27;2.13;;;;;;;;;;5063194;27;88619;-54
2022/12/05 08:48:34;;;;;;;2.63;1.67;;;;;;;;;;5063166;27;87002;-54
2022/12/05 08:51:05;;;;;;;3.30;1.43;;;;;;;;;;5062688;27;86973;-54
2022/12/05 08:53:33;;;;;;;3.60;1.90;;;;;;;;;;5061891;27;89077;-54
2022/12/05 08:56:07;;;;;;;2.47;1.70;;;;;;;;;;5062180;27;88984;-54
2022/12/05 08:58:35;;;;;;;1.90;1.47;;;;;;;;;;5062132;27;87148;-54
2022/12/05 09:01:06;;;;;;;2.60;1.20;;;;;;;;;;5063050;27;86137;-54
2022/12/05 09:03:34;;;;;;;1.87;1.67;;;;;;;;;;5062666;27;86809;-54
2022/12/05 09:06:07;;;;;;;2.20;1.17;;;;;;;;;;5061773;27;88827;-54
2022/12/05 09:08:35;;;;;;;3.00;1.80;;;;;;;;;;5062029;27;88023;-54
2022/12/05 09:11:05;;;;;;;3.13;1.60;;;;;;;;;;5061974;27;87669;-54
2022/12/05 09:13:33;;;;;;;1.67;1.27;;;;;;;;;;5061603;27;89167;-54
2022/12/05 09:16:07;;;;;;;3.03;1.53;;;;;;;;;;5062029;27;87004;-54
2022/12/05 09:18:35;;;;;;;3.20;2.03;;;;;;;;;;5062171;27;87065;-54
2022/12/05 09:21:07;;;;;;;1.60;1.40;;;;;;;;;;5062022;27;87024;-54
2022/12/05 09:23:35;;;;;;;1.83;1.20;;;;;;;;;;5062338;27;89096;-54
2022/12/05 09:26:04;;;;;;;1.77;1.60;;;;;;;;;;5062744;27;88841;-54
2022/12/05 09:28:32;;;;;;;3.40;1.50;;;;;;;;;;5062305;27;86742;-54
2022/12/05 09:31:01;;;;;;;1.57;1.20;;;;;;;;;;5062041;27;86924;-54
2022/12/05 09:33:31;;;;;;;1.80;1.17;;;;;;;;;;5061495;27;90116;-54
2022/12/05 09:35:59;;;;;;;1.80;1.50;;;;;;;;;;5071327;27;88930;-54
2022/12/05 09:38:27;;;;;;;2.20;1.80;;;;;;;;;;5082590;27;87095;-54
2022/12/05 09:41:00;;;;;;;1.20;1.10;;;;;;;;;;5082147;27;87012;-54
2022/12/05 09:43:30;;;;;;;1.20;1.10;;;;;;;;;;5081518;27;89134;-54
2022/12/05 09:45:59;;;;;;;2.47;1.50;;;;;;;;;;5082024;27;88988;-54
2022/12/05 09:48:28;;;;;;;3.03;1.67;;;;;;;;;;5082671;27;87055;-54
2022/12/05 09:50:58;;;;;;;1.50;1.40;;;;;;;;;;5081969;27;86950;-54
2022/12/05 09:53:27;;;;;;;1.17;1.17;;;;;;;;;;5082123;27;88920;-54
2022/12/05 09:55:56;;;;;;;3.33;2.00;;;;;;;;;;5081708;27;88852;-54
2022/12/05 09:58:37;;;;;;;2.00;1.80;;;;;;;;;;5081080;27;87949;-54
2022/12/05 10:01:09;;;;;;;2.57;1.93;;;;;;;;;;5082547;27;87008;-55
2022/12/05 10:03:39;;;;;;;3.10;1.93;;;;;;;;;;5082135;27;89078;-54
2022/12/05 10:06:12;;;;;;;2.47;2.23;;;;;;;;;;5082155;27;87800;-54
2022/12/05 10:08:43;;;;;;;3.20;2.90;;;;;;;;;;5082437;27;87192;-54
2022/12/05 10:11:13;;;;;;;3.67;3.37;;;;;;;;;;5082174;27;86912;-54
2022/12/05 10:13:46;;;;;;;2.73;2.53;;;;;;;;;;5082152;27;86937;-54
2022/12/05 10:16:14;;;;;;;3.77;3.33;;;;;;;;;;5082289;27;88985;-53
2022/12/05 10:18:43;;;;;;;3.23;2.93;;;;;;;;;;5082174;27;87102;-54
2022/12/05 10:21:15;;;;;;;4.10;3.70;;;;;;;;;;5081499;27;87004;-54
2022/12/05 10:23:46;;;;;;;4.10;3.70;;;;;;;;;;5080822;27;90158;-54
2022/12/05 10:26:30;;;;;;;3.90;3.60;;;;;;;;;;5082519;27;88638;-54
2022/12/05 10:29:01;;;;;;;4.63;3.83;;;;;;;;;;5084883;27;87025;-54
2022/12/05 10:31:30;;;;;;;3.90;3.37;;;;;;;;;;5085144;27;86944;-54
2022/12/05 10:34:01;;;;;;;4.60;4.20;;;;;;;;;;5085019;27;87005;-54
2022/12/05 10:36:32;;;;;;;4.80;4.30;;;;;;;;;;5084540;27;87000;-54
2022/12/05 10:39:00;;;;;;;4.73;4.33;;;;;;;;;;5084766;27;87103;-54
2022/12/05 10:41:32;;;;;;;4.50;4.10;;;;;;;;;;5084998;27;86168;-54
2022/12/05 10:44:01;;;;;;;4.93;4.50;;;;;;;;;;5084688;27;89160;-54
2022/12/05 10:46:30;;;;;;;4.70;4.30;;;;;;;;;;5085457;27;87608;-54
2022/12/05 10:48:58;;;;;;;4.87;4.40;;;;;;;;;;5084653;27;87935;-54
2022/12/05 10:51:28;;;;;;;5.57;5.07;;;;;;;;;;5084778;27;87078;-54
2022/12/05 10:54:09;;;;;;;5.50;5.00;;;;;;;;;;5084814;27;89150;-54
2022/12/05 10:56:38;;;;;;;6.07;5.57;;;;;;;;;;5084615;27;88891;-54
2022/12/05 10:59:06;;;;;;;5.43;4.93;;;;;;;;;;5085258;27;86914;-54
2022/12/05 11:01:37;;;;;;;5.27;4.77;;;;;;;;;;5085168;27;86983;-54
2022/12/05 11:04:08;;;;;;;5.60;5.10;;;;;;;;;;5084711;27;88195;-54
2022/12/05 11:06:41;;;;;;;5.20;4.77;;;;;;;;;;5085099;27;88788;-54
2022/12/05 11:09:17;;;;;;;5.40;4.90;;;;;;;;;;5085135;27;86984;-54
2022/12/05 11:11:46;;;;;;;5.63;5.13;;;;;;;;;;5084724;27;86897;-54
2022/12/05 11:14:21;;;;;;;5.77;5.27;;;;;;;;;;5083656;27;88826;-54
2022/12/05 11:16:52;;;;;;;6.73;4.93;;;;;;;;;;5084836;27;88359;-54
2022/12/05 11:19:24;;;;;;;6.53;5.93;;;;;;;;;;5084589;27;87016;-55
2022/12/05 11:21:53;;;;;;;6.40;5.80;;;;;;;;;;5084291;27;87650;-54
2022/12/05 11:24:23;;;;;;;5.57;5.07;;;;;;;;;;5083840;27;87686;-54
2022/12/05 11:26:51;;;;;;;5.67;5.20;;;;;;;;;;5083888;27;87385;-54
2022/12/05 11:29:32;;;;;;;7.20;5.73;;;;;;;;;;5084409;27;88004;-54
2022/12/05 11:32:01;;;;;;;6.27;5.67;;;;;;;;;;5084434;27;86912;-54
2022/12/05 11:34:30;;;;;;;6.43;5.83;;;;;;;;;;5084201;27;88098;-54
2022/12/05 11:37:00;;;;;;;7.43;5.97;;;;;;;;;;5083528;27;88837;-54
2022/12/05 11:39:30;;;;;;;6.73;6.07;;;;;;;;;;5083474;27;88050;-54
2022/12/05 11:42:23;;;;;;;6.13;5.53;;;;;;;;;;5083651;27;86985;-54
2022/12/05 11:44:55;;;;;;;6.80;6.17;;;;;;;;;;5068742;27;89160;-54
2022/12/05 11:47:31;;;;;;;5.90;5.40;;;;;;;;;;5084072;27;88109;-54
2022/12/05 11:50:18;;;;;;;7.13;6.17;;;;;;;;;;5083932;27;86989;-54
2022/12/05 11:52:52;;;;;;;6.07;5.57;;;;;;;;;;5083891;27;86967;-54
2022/12/05 11:55:22;;;;;;;7.20;5.87;;;;;;;;;;5083877;27;89073;-54
2022/12/05 11:57:55;;;;;;;6.43;5.83;;;;;;;;;;5083840;27;88897;-54
2022/12/05 12:00:23;;;;;;;6.87;5.80;;;;;;;;;;5084396;27;87100;-54
2022/12/05 12:03:01;;;;;;;6.60;6.00;;;;;;;;;;5084164;27;86883;-54
2022/12/05 12:05:31;;;;;;;6.67;6.07;;;;;;;;;;5083233;27;90081;-54
2022/12/05 12:08:02;;;;;;;7.13;6.43;;;;;;;;;;5083368;27;89594;-54
2022/12/05 12:10:35;;;;;;;7.03;6.43;;;;;;;;;;5083867;27;87048;-54
2022/12/05 12:13:07;;;;;;;7.57;6.80;;;;;;;;;;5083924;27;86746;-54
2022/12/05 12:15:48;;;;;;;6.17;5.57;;;;;;;;;;5083551;27;89134;-54
2022/12/05 12:18:22;;;;;;;6.60;6.00;;;;;;;;;;5083644;27;88830;-54
2022/12/05 12:20:54;;;;;;;7.10;6.50;;;;;;;;;;5083501;27;87031;-54
2022/12/05 12:23:29;;;;;;;7.33;6.60;;;;;;;;;;5083696;27;86210;-54
2022/12/05 12:26:04;;;;;;;6.67;5.97;;;;;;;;;;5082744;27;89296;-54
2022/12/05 12:28:34;;;;;;;7.03;6.40;;;;;;;;;;5083267;27;87789;-54
2022/12/05 12:31:17;;;;;;;8.07;7.27;;;;;;;;;;5082678;27;88098;-54
2022/12/05 12:33:47;;;;;;;8.03;7.33;;;;;;;;;;5083238;27;87080;-54
2022/12/05 12:36:17;;;;;;;7.30;6.60;;;;;;;;;;5083054;27;89251;-54
2022/12/05 12:38:51;;;;;;;8.03;7.23;;;;;;;;;;5082629;27;88732;-54
2022/12/05 12:41:25;;;;;;;7.77;7.03;;;;;;;;;;5083449;27;86985;-54
2022/12/05 12:44:00;;;;;;;7.83;7.03;;;;;;;;;;5083288;27;87079;-54
2022/12/05 12:46:31;;;;;;;9.50;7.57;;;;;;;;;;5082843;27;87737;-54
2022/12/05 12:49:03;;;;;;;8.17;7.33;;;;;;;;;;5082600;27;89029;-54
2022/12/05 12:51:32;;;;;;;10.00;8.43;;;;;;;;;;5083291;27;86924;-54
2022/12/05 12:54:21;;;;;;;9.87;7.80;;;;;;;;;;5082997;27;87075;-54
2022/12/05 12:57:12;;;;;;;8.57;7.70;;;;;;;;;;5081803;27;91126;-54
2022/12/05 12:59:49;;;;;;;9.37;8.47;;;;;;;;;;5082872;27;89767;-54
2022/12/05 13:02:19;;;;;;;13.07;7.37;;;;;;;;;;5083376;27;87025;-54
2022/12/05 13:04:48;;;;;;;8.70;8.00;;;;;;;;;;5083090;27;87049;-54
2022/12/05 13:07:18;;;;;;;7.93;7.23;;;;;;;;;;5082346;27;89069;-54
2022/12/05 13:09:48;;;;;;;10.20;8.77;;;;;;;;;;5082551;27;87008;-54
2022/12/05 13:12:22;;;;;;;9.17;8.10;;;;;;;;;;5082962;27;87036;-54
2022/12/05 13:14:51;;;;;;;8.60;7.83;;;;;;;;;;5083047;27;86244;-54
2022/12/05 13:17:20;;;;;;;9.37;8.40;;;;;;;;;;5082705;27;89060;-54
2022/12/05 13:19:48;;;;;;;9.17;8.20;;;;;;;;;;5081984;27;89264;-54
2022/12/05 13:22:17;;;;;;;10.17;8.90;;;;;;;;;;5081870;27;87844;-54
2022/12/05 13:24:45;;;;;;;8.87;7.97;;;;;;;;;;5082249;27;88174;-54
2022/12/05 13:27:15;;;;;;;8.67;7.97;;;;;;;;;;5082373;27;89171;-54
2022/12/05 13:29:49;;;;;;;10.67;9.63;;;;;;;;;;5082627;27;88728;-54
2022/12/05 13:32:25;;;;;;;9.77;8.77;;;;;;;;;;5082361;27;86721;-54
2022/12/05 13:34:53;;;;;;;8.87;7.97;;;;;;;;;;5082446;27;87090;-54
2022/12/05 13:43:05;;;;;;;9.00;8.10;;;;;;;;;;5082647;27;86800;-54
2022/12/05 13:45:35;;;;;;;8.93;8.17;;;;;;;;;;5082389;27;86821;-54
2022/12/05 13:48:07;;;;;;;9.43;8.47;;;;;;;;;;5081442;27;90265;-54
2022/12/05 13:50:36;;;;;;;8.70;7.97;;;;;;;;;;5082323;27;88718;-54
2022/12/05 13:53:05;;;;;;;9.70;8.67;;;;;;;;;;5082878;27;87068;-54
2022/12/05 13:55:33;;;;;;;8.60;7.70;;;;;;;;;;5082648;27;86922;-54
2022/12/05 13:58:04;;;;;;;8.23;7.50;;;;;;;;;;5081578;27;89080;-54
2022/12/05 14:00:37;;;;;;;7.77;7.07;;;;;;;;;;5082166;27;88599;-54
2022/12/05 14:03:06;;;;;;;8.37;6.97;;;;;;;;;;5086171;27;87078;-54
2022/12/05 14:05:41;;;;;;;9.57;8.13;;;;;;;;;;5086131;27;86306;-54
2022/12/05 14:08:43;;;;;;;8.33;7.53;;;;;;;;;;5085094;27;88954;-54
2022/12/05 14:11:11;;;;;;;8.47;7.70;;;;;;;;;;5085528;27;88799;-55
2022/12/05 14:13:41;;;;;;;7.57;6.87;;;;;;;;;;5085141;27;88046;-55
2022/12/05 14:16:27;;;;;;;8.07;7.37;;;;;;;;;;5085691;27;87077;-55
2022/12/05 14:18:59;;;;;;;8.27;7.57;;;;;;;;;;5084873;27;89225;-54
2022/12/05 14:21:35;;;;;;;7.97;7.27;;;;;;;;;;5084838;27;87546;-54
2022/12/05 14:24:04;;;;;;;7.87;7.17;;;;;;;;;;5084920;27;87094;-54
2022/12/05 14:26:39;;;;;;;8.43;7.63;;;;;;;;;;5085075;27;86925;-54
2022/12/05 14:29:13;;;;;;;8.10;7.30;;;;;;;;;;5085315;27;88894;-54
2022/12/05 14:31:44;;;;;;;9.33;6.33;;;;;;;;;;5085915;27;89123;-54
2022/12/05 14:34:19;;;;;;;7.77;6.87;;;;;;;;;;5085328;27;86933;-54
2022/12/05 14:36:54;;;;;;;7.30;6.70;;;;;;;;;;5085144;27;86909;-54
2022/12/05 14:39:23;;;;;;;7.20;6.60;;;;;;;;;;5071246;27;88909;-54
2022/12/05 14:41:56;;;;;;;6.87;6.30;;;;;;;;;;5084594;27;89919;-54
2022/12/05 14:44:29;;;;;;;7.07;6.40;;;;;;;;;;5085014;27;87053;-54
2022/12/05 14:47:01;;;;;;;7.13;6.53;;;;;;;;;;5085041;27;87051;-54
2022/12/05 14:49:52;;;;;;;6.80;6.13;;;;;;;;;;5084736;27;88879;-54
2022/12/05 14:52:21;;;;;;;7.27;6.57;;;;;;;;;;5084094;27;88790;-54
2022/12/05 14:54:50;;;;;;;7.60;6.87;;;;;;;;;;5084729;27;87033;-54
2022/12/05 14:57:18;;;;;;;6.07;5.53;;;;;;;;;;5085516;27;86383;-55
2022/12/05 14:59:48;;;;;;;6.37;5.73;;;;;;;;;;5085103;27;87982;-54
2022/12/05 15:02:17;;;;;;;5.57;5.07;;;;;;;;;;5084619;27;88601;-54
2022/12/05 15:04:47;;;;;;;6.60;6.00;;;;;;;;;;5084613;27;87940;-54
2022/12/05 15:07:17;;;;;;;7.87;6.00;;;;;;;;;;5084669;27;86991;-54
2022/12/05 15:09:55;;;;;;;6.53;5.87;;;;;;;;;;5084563;27;88859;-54
2022/12/05 15:12:24;;;;;;;5.80;5.20;;;;;;;;;;5083997;27;87740;-54
2022/12/05 15:14:58;;;;;;;5.57;5.07;;;;;;;;;;5084585;27;87025;-54